sensor_id;sensor_type;location;lat;lon;timestamp;temperature;humidity
55828;DHT22;41758;51.992;5.890;2023-10-09T00:01:11;19.80;61.80
55828;DHT22;41758;51.992;5.890;2023-10-09T00:03:44;19.80;61.70
55828;DHT22;41758;51.992;5.890;2023-10-09T00:06:10;19.90;61.80
55828;DHT22;41758;51.992;5.890;2023-10-09T00:08:39;19.90;62.00
55828;DHT22;41758;51.992;5.890;2023-10-09T00:11:10;19.80;62.00
55828;DHT22;41758;51.992;5.890;2023-10-09T00:13:47;19.80;62.30
55828;DHT22;41758;51.992;5.890;2023-10-09T00:16:20;19.80;62.30
55828;DHT22;41758;51.992;5.890;2023-10-09T00:19:09;19.80;62.60
55828;DHT22;41758;51.992;5.890;2023-10-09T00:21:52;19.80;62.70
55828;DHT22;41758;51.992;5.890;2023-10-09T00:24:20;19.80;62.90
55828;DHT22;41758;51.992;5.890;2023-10-09T00:26:53;19.80;62.90
55828;DHT22;41758;51.992;5.890;2023-10-09T00:29:22;19.80;62.90
55828;DHT22;41758;51.992;5.890;2023-10-09T00:31:52;19.90;62.90
55828;DHT22;41758;51.992;5.890;2023-10-09T00:34:38;19.90;63.00
55828;DHT22;41758;51.992;5.890;2023-10-09T00:37:07;19.90;62.90
55828;DHT22;41758;51.992;5.890;2023-10-09T00:39:45;19.90;63.00
55828;DHT22;41758;51.992;5.890;2023-10-09T00:42:13;19.90;62.90
55828;DHT22;41758;51.992;5.890;2023-10-09T00:44:40;20.00;63.00
55828;DHT22;41758;51.992;5.890;2023-10-09T00:47:12;20.00;62.90
55828;DHT22;41758;51.992;5.890;2023-10-09T00:49:50;20.00;62.90
55828;DHT22;41758;51.992;5.890;2023-10-09T00:52:20;20.00;62.90
55828;DHT22;41758;51.992;5.890;2023-10-09T00:55:00;20.10;62.90
55828;DHT22;41758;51.992;5.890;2023-10-09T00:57:47;20.00;62.90
55828;DHT22;41758;51.992;5.890;2023-10-09T01:00:16;20.00;62.90
55828;DHT22;41758;51.992;5.890;2023-10-09T01:02:59;20.00;62.90
55828;DHT22;41758;51.992;5.890;2023-10-09T01:05:58;20.00;62.90
55828;DHT22;41758;51.992;5.890;2023-10-09T01:08:31;20.00;63.00
55828;DHT22;41758;51.992;5.890;2023-10-09T01:13:46;20.00;63.30
55828;DHT22;41758;51.992;5.890;2023-10-09T01:16:20;20.00;63.30
55828;DHT22;41758;51.992;5.890;2023-10-09T01:18:50;20.00;63.30
55828;DHT22;41758;51.992;5.890;2023-10-09T01:21:21;20.00;63.30
55828;DHT22;41758;51.992;5.890;2023-10-09T01:23:50;20.10;63.30
55828;DHT22;41758;51.992;5.890;2023-10-09T01:26:32;20.10;63.30
55828;DHT22;41758;51.992;5.890;2023-10-09T01:29:05;20.10;63.30
55828;DHT22;41758;51.992;5.890;2023-10-09T01:31:36;20.10;63.40
55828;DHT22;41758;51.992;5.890;2023-10-09T01:34:09;20.10;63.30
55828;DHT22;41758;51.992;5.890;2023-10-09T01:36:39;20.20;63.40
55828;DHT22;41758;51.992;5.890;2023-10-09T01:39:05;20.20;63.30
55828;DHT22;41758;51.992;5.890;2023-10-09T01:41:57;20.20;63.40
55828;DHT22;41758;51.992;5.890;2023-10-09T01:44:32;20.20;63.40
55828;DHT22;41758;51.992;5.890;2023-10-09T01:47:04;20.20;63.40
55828;DHT22;41758;51.992;5.890;2023-10-09T01:49:37;20.30;63.40
55828;DHT22;41758;51.992;5.890;2023-10-09T01:52:03;20.30;63.50
55828;DHT22;41758;51.992;5.890;2023-10-09T01:54:38;20.30;63.50
55828;DHT22;41758;51.992;5.890;2023-10-09T01:57:06;20.30;63.50
55828;DHT22;41758;51.992;5.890;2023-10-09T01:59:47;20.30;63.50
55828;DHT22;41758;51.992;5.890;2023-10-09T02:02:16;20.40;63.60
55828;DHT22;41758;51.992;5.890;2023-10-09T02:05:03;20.40;63.60
55828;DHT22;41758;51.992;5.890;2023-10-09T02:07:41;20.40;63.60
55828;DHT22;41758;51.992;5.890;2023-10-09T02:10:14;20.40;63.60
55828;DHT22;41758;51.992;5.890;2023-10-09T02:13:04;20.40;63.60
55828;DHT22;41758;51.992;5.890;2023-10-09T02:15:36;20.50;63.70
55828;DHT22;41758;51.992;5.890;2023-10-09T02:20:46;20.60;63.60
55828;DHT22;41758;51.992;5.890;2023-10-09T02:23:13;20.60;63.60
55828;DHT22;41758;51.992;5.890;2023-10-09T02:25:42;20.70;63.60
55828;DHT22;41758;51.992;5.890;2023-10-09T02:28:10;20.60;63.50
55828;DHT22;41758;51.992;5.890;2023-10-09T02:30:45;20.70;63.60
55828;DHT22;41758;51.992;5.890;2023-10-09T02:33:17;20.70;63.50
55828;DHT22;41758;51.992;5.890;2023-10-09T02:35:56;20.80;63.50
55828;DHT22;41758;51.992;5.890;2023-10-09T02:38:28;20.70;63.50
55828;DHT22;41758;51.992;5.890;2023-10-09T02:40:57;20.70;63.50
55828;DHT22;41758;51.992;5.890;2023-10-09T02:43:25;20.80;63.50
55828;DHT22;41758;51.992;5.890;2023-10-09T02:45:52;20.80;63.40
55828;DHT22;41758;51.992;5.890;2023-10-09T02:48:18;20.80;63.30
55828;DHT22;41758;51.992;5.890;2023-10-09T02:50:51;20.80;63.30
55828;DHT22;41758;51.992;5.890;2023-10-09T02:53:17;20.80;63.30
55828;DHT22;41758;51.992;5.890;2023-10-09T02:55:55;20.80;63.20
55828;DHT22;41758;51.992;5.890;2023-10-09T02:58:51;20.80;63.30
55828;DHT22;41758;51.992;5.890;2023-10-09T03:01:17;20.70;63.30
55828;DHT22;41758;51.992;5.890;2023-10-09T03:03:43;20.70;63.30
55828;DHT22;41758;51.992;5.890;2023-10-09T03:06:15;20.70;63.30
55828;DHT22;41758;51.992;5.890;2023-10-09T03:08:57;20.70;63.30
55828;DHT22;41758;51.992;5.890;2023-10-09T03:11:23;20.70;63.40
55828;DHT22;41758;51.992;5.890;2023-10-09T03:13:49;20.70;63.40
55828;DHT22;41758;51.992;5.890;2023-10-09T03:16:16;20.70;63.50
55828;DHT22;41758;51.992;5.890;2023-10-09T03:18:49;20.70;63.50
55828;DHT22;41758;51.992;5.890;2023-10-09T03:21:15;20.70;63.50
55828;DHT22;41758;51.992;5.890;2023-10-09T03:23:44;20.70;63.50
55828;DHT22;41758;51.992;5.890;2023-10-09T03:26:10;20.60;63.40
55828;DHT22;41758;51.992;5.890;2023-10-09T03:28:36;20.70;63.50
55828;DHT22;41758;51.992;5.890;2023-10-09T03:31:02;20.70;63.50
55828;DHT22;41758;51.992;5.890;2023-10-09T03:33:31;20.70;63.50
55828;DHT22;41758;51.992;5.890;2023-10-09T03:36:02;20.70;63.50
55828;DHT22;41758;51.992;5.890;2023-10-09T03:38:28;20.70;63.60
55828;DHT22;41758;51.992;5.890;2023-10-09T03:41:01;20.70;63.60
55828;DHT22;41758;51.992;5.890;2023-10-09T03:43:32;20.70;63.60
55828;DHT22;41758;51.992;5.890;2023-10-09T03:45:59;20.70;63.70
55828;DHT22;41758;51.992;5.890;2023-10-09T03:48:28;20.70;63.70
55828;DHT22;41758;51.992;5.890;2023-10-09T03:51:03;20.70;63.70
55828;DHT22;41758;51.992;5.890;2023-10-09T03:53:35;20.70;63.70
55828;DHT22;41758;51.992;5.890;2023-10-09T03:56:08;20.80;63.80
55828;DHT22;41758;51.992;5.890;2023-10-09T03:58:45;20.80;63.80
55828;DHT22;41758;51.992;5.890;2023-10-09T04:01:11;20.80;63.80
55828;DHT22;41758;51.992;5.890;2023-10-09T04:03:44;20.70;63.80
55828;DHT22;41758;51.992;5.890;2023-10-09T04:06:10;20.70;63.90
55828;DHT22;41758;51.992;5.890;2023-10-09T04:08:36;20.70;63.90
55828;DHT22;41758;51.992;5.890;2023-10-09T04:11:05;20.70;63.90
55828;DHT22;41758;51.992;5.890;2023-10-09T04:13:42;20.70;63.90
55828;DHT22;41758;51.992;5.890;2023-10-09T04:16:11;20.70;64.00
55828;DHT22;41758;51.992;5.890;2023-10-09T04:18:55;20.70;64.00
55828;DHT22;41758;51.992;5.890;2023-10-09T04:21:25;20.70;64.00
55828;DHT22;41758;51.992;5.890;2023-10-09T04:23:57;20.80;64.00
55828;DHT22;41758;51.992;5.890;2023-10-09T04:26:36;20.80;64.10
55828;DHT22;41758;51.992;5.890;2023-10-09T04:29:03;20.80;64.30
55828;DHT22;41758;51.992;5.890;2023-10-09T04:31:29;20.80;64.40
55828;DHT22;41758;51.992;5.890;2023-10-09T04:34:06;20.90;64.40
55828;DHT22;41758;51.992;5.890;2023-10-09T04:36:50;20.90;64.50
55828;DHT22;41758;51.992;5.890;2023-10-09T04:39:28;20.90;64.50
55828;DHT22;41758;51.992;5.890;2023-10-09T04:41:54;20.90;64.60
55828;DHT22;41758;51.992;5.890;2023-10-09T04:44:44;20.90;64.50
55828;DHT22;41758;51.992;5.890;2023-10-09T04:47:37;20.90;64.60
55828;DHT22;41758;51.992;5.890;2023-10-09T04:52:37;21.00;64.50
55828;DHT22;41758;51.992;5.890;2023-10-09T04:55:03;21.00;64.60
55828;DHT22;41758;51.992;5.890;2023-10-09T04:57:36;21.00;64.60
55828;DHT22;41758;51.992;5.890;2023-10-09T05:00:24;21.00;64.60
55828;DHT22;41758;51.992;5.890;2023-10-09T05:02:50;21.10;64.70
55828;DHT22;41758;51.992;5.890;2023-10-09T05:05:20;21.10;64.60
55828;DHT22;41758;51.992;5.890;2023-10-09T05:08:05;21.10;64.60
55828;DHT22;41758;51.992;5.890;2023-10-09T05:10:51;21.10;64.60
55828;DHT22;41758;51.992;5.890;2023-10-09T05:13:30;21.10;64.60
55828;DHT22;41758;51.992;5.890;2023-10-09T05:16:22;21.20;64.50
55828;DHT22;41758;51.992;5.890;2023-10-09T05:18:52;21.10;64.50
55828;DHT22;41758;51.992;5.890;2023-10-09T05:21:53;21.20;64.60
55828;DHT22;41758;51.992;5.890;2023-10-09T05:24:18;21.20;64.60
55828;DHT22;41758;51.992;5.890;2023-10-09T05:26:49;21.10;64.60
55828;DHT22;41758;51.992;5.890;2023-10-09T05:29:25;21.20;64.50
55828;DHT22;41758;51.992;5.890;2023-10-09T05:31:54;21.20;64.40
55828;DHT22;41758;51.992;5.890;2023-10-09T05:34:39;21.20;64.60
55828;DHT22;41758;51.992;5.890;2023-10-09T05:37:24;21.10;64.70
55828;DHT22;41758;51.992;5.890;2023-10-09T05:39:54;21.10;64.70
55828;DHT22;41758;51.992;5.890;2023-10-09T05:45:27;21.20;64.70
55828;DHT22;41758;51.992;5.890;2023-10-09T05:48:15;21.20;64.60
55828;DHT22;41758;51.992;5.890;2023-10-09T05:50:41;21.20;64.60
55828;DHT22;41758;51.992;5.890;2023-10-09T05:53:25;21.10;64.60
55828;DHT22;41758;51.992;5.890;2023-10-09T05:56:09;21.20;64.60
55828;DHT22;41758;51.992;5.890;2023-10-09T05:58:54;21.10;64.60
55828;DHT22;41758;51.992;5.890;2023-10-09T06:01:32;21.10;64.70
55828;DHT22;41758;51.992;5.890;2023-10-09T06:04:15;21.20;64.80
55828;DHT22;41758;51.992;5.890;2023-10-09T06:06:42;21.20;64.90
55828;DHT22;41758;51.992;5.890;2023-10-09T06:09:14;21.20;65.00
55828;DHT22;41758;51.992;5.890;2023-10-09T06:11:45;21.20;65.10
55828;DHT22;41758;51.992;5.890;2023-10-09T06:14:21;21.20;65.20
55828;DHT22;41758;51.992;5.890;2023-10-09T06:16:58;21.20;65.30
55828;DHT22;41758;51.992;5.890;2023-10-09T06:19:41;21.20;65.40
55828;DHT22;41758;51.992;5.890;2023-10-09T06:22:09;21.30;65.40
55828;DHT22;41758;51.992;5.890;2023-10-09T06:24:55;21.30;65.40
55828;DHT22;41758;51.992;5.890;2023-10-09T06:27:23;21.30;65.40
55828;DHT22;41758;51.992;5.890;2023-10-09T06:30:12;21.40;65.40
55828;DHT22;41758;51.992;5.890;2023-10-09T06:32:38;21.40;65.30
55828;DHT22;41758;51.992;5.890;2023-10-09T06:35:04;21.40;65.30
55828;DHT22;41758;51.992;5.890;2023-10-09T06:37:43;21.40;65.30
55828;DHT22;41758;51.992;5.890;2023-10-09T06:40:34;21.50;65.20
55828;DHT22;41758;51.992;5.890;2023-10-09T06:43:19;21.50;65.10
55828;DHT22;41758;51.992;5.890;2023-10-09T06:48:27;21.50;65.10
55828;DHT22;41758;51.992;5.890;2023-10-09T06:51:09;21.50;65.10
55828;DHT22;41758;51.992;5.890;2023-10-09T06:53:54;21.50;65.10
55828;DHT22;41758;51.992;5.890;2023-10-09T06:56:20;21.50;65.10
55828;DHT22;41758;51.992;5.890;2023-10-09T06:59:09;21.60;65.10
55828;DHT22;41758;51.992;5.890;2023-10-09T07:01:51;21.60;65.00
55828;DHT22;41758;51.992;5.890;2023-10-09T07:04:37;21.60;65.00
55828;DHT22;41758;51.992;5.890;2023-10-09T07:07:03;21.60;65.00
55828;DHT22;41758;51.992;5.890;2023-10-09T07:09:47;21.60;65.00
55828;DHT22;41758;51.992;5.890;2023-10-09T07:12:42;21.60;65.00
55828;DHT22;41758;51.992;5.890;2023-10-09T07:15:18;21.60;64.90
55828;DHT22;41758;51.992;5.890;2023-10-09T07:18:06;21.60;65.00
55828;DHT22;41758;51.992;5.890;2023-10-09T07:20:45;21.60;65.00
55828;DHT22;41758;51.992;5.890;2023-10-09T07:23:25;21.70;65.00
55828;DHT22;41758;51.992;5.890;2023-10-09T07:26:04;21.70;65.00
55828;DHT22;41758;51.992;5.890;2023-10-09T07:28:44;21.80;64.90
55828;DHT22;41758;51.992;5.890;2023-10-09T07:31:20;21.80;64.90
55828;DHT22;41758;51.992;5.890;2023-10-09T07:33:53;21.80;64.90
55828;DHT22;41758;51.992;5.890;2023-10-09T07:36:25;21.80;64.80
55828;DHT22;41758;51.992;5.890;2023-10-09T07:39:04;21.90;64.80
55828;DHT22;41758;51.992;5.890;2023-10-09T07:41:40;21.90;64.80
55828;DHT22;41758;51.992;5.890;2023-10-09T07:44:10;21.90;64.80
55828;DHT22;41758;51.992;5.890;2023-10-09T07:46:59;21.90;64.80
55828;DHT22;41758;51.992;5.890;2023-10-09T07:49:45;21.90;64.70
55828;DHT22;41758;51.992;5.890;2023-10-09T07:52:19;21.90;64.70
55828;DHT22;41758;51.992;5.890;2023-10-09T07:54:47;21.80;64.80
55828;DHT22;41758;51.992;5.890;2023-10-09T07:57:20;21.80;64.80
55828;DHT22;41758;51.992;5.890;2023-10-09T07:59:51;21.80;64.90
55828;DHT22;41758;51.992;5.890;2023-10-09T08:02:26;21.90;65.00
55828;DHT22;41758;51.992;5.890;2023-10-09T08:05:02;21.90;65.00
55828;DHT22;41758;51.992;5.890;2023-10-09T08:07:48;21.90;65.00
55828;DHT22;41758;51.992;5.890;2023-10-09T08:10:22;21.90;65.10
55828;DHT22;41758;51.992;5.890;2023-10-09T08:12:48;22.00;65.10
55828;DHT22;41758;51.992;5.890;2023-10-09T08:15:24;22.00;65.10
55828;DHT22;41758;51.992;5.890;2023-10-09T08:18:09;22.00;65.20
55828;DHT22;41758;51.992;5.890;2023-10-09T08:20:44;22.10;65.30
55828;DHT22;41758;51.992;5.890;2023-10-09T08:23:28;22.10;65.30
55828;DHT22;41758;51.992;5.890;2023-10-09T08:26:14;22.20;65.30
55828;DHT22;41758;51.992;5.890;2023-10-09T08:28:41;22.30;65.30
55828;DHT22;41758;51.992;5.890;2023-10-09T08:31:17;22.30;65.30
55828;DHT22;41758;51.992;5.890;2023-10-09T08:34:11;22.30;65.20
55828;DHT22;41758;51.992;5.890;2023-10-09T08:36:49;22.30;65.20
55828;DHT22;41758;51.992;5.890;2023-10-09T08:39:19;22.30;65.30
55828;DHT22;41758;51.992;5.890;2023-10-09T08:41:54;22.30;65.30
55828;DHT22;41758;51.992;5.890;2023-10-09T08:44:28;22.40;65.40
55828;DHT22;41758;51.992;5.890;2023-10-09T08:46:57;22.40;65.40
55828;DHT22;41758;51.992;5.890;2023-10-09T08:49:24;22.60;65.40
55828;DHT22;41758;51.992;5.890;2023-10-09T08:51:50;22.60;65.20
55828;DHT22;41758;51.992;5.890;2023-10-09T08:54:18;22.60;65.20
55828;DHT22;41758;51.992;5.890;2023-10-09T08:56:46;22.60;65.30
55828;DHT22;41758;51.992;5.890;2023-10-09T08:59:18;22.70;65.20
55828;DHT22;41758;51.992;5.890;2023-10-09T09:01:48;22.70;65.10
55828;DHT22;41758;51.992;5.890;2023-10-09T09:04:40;22.70;65.20
55828;DHT22;41758;51.992;5.890;2023-10-09T09:07:24;22.80;65.30
55828;DHT22;41758;51.992;5.890;2023-10-09T09:09:57;22.80;65.20
55828;DHT22;41758;51.992;5.890;2023-10-09T09:12:27;22.90;65.30
55828;DHT22;41758;51.992;5.890;2023-10-09T09:14:56;22.90;65.10
55828;DHT22;41758;51.992;5.890;2023-10-09T09:17:23;23.00;64.60
55828;DHT22;41758;51.992;5.890;2023-10-09T09:19:56;23.00;64.80
55828;DHT22;41758;51.992;5.890;2023-10-09T09:22:23;23.10;65.00
55828;DHT22;41758;51.992;5.890;2023-10-09T09:24:58;23.10;64.60
55828;DHT22;41758;51.992;5.890;2023-10-09T09:27:47;23.20;64.70
55828;DHT22;41758;51.992;5.890;2023-10-09T09:30:28;23.30;64.30
55828;DHT22;41758;51.992;5.890;2023-10-09T09:33:20;23.30;64.50
55828;DHT22;41758;51.992;5.890;2023-10-09T09:36:04;23.30;64.50
55828;DHT22;41758;51.992;5.890;2023-10-09T09:38:32;23.40;64.30
55828;DHT22;41758;51.992;5.890;2023-10-09T09:41:19;23.40;64.50
55828;DHT22;41758;51.992;5.890;2023-10-09T09:43:58;23.60;64.50
55828;DHT22;41758;51.992;5.890;2023-10-09T09:46:32;23.70;64.50
55828;DHT22;41758;51.992;5.890;2023-10-09T09:49:01;23.80;64.50
55828;DHT22;41758;51.992;5.890;2023-10-09T09:51:31;23.80;64.50
55828;DHT22;41758;51.992;5.890;2023-10-09T09:53:57;23.90;64.10
55828;DHT22;41758;51.992;5.890;2023-10-09T09:56:26;24.00;63.80
55828;DHT22;41758;51.992;5.890;2023-10-09T09:58:54;24.00;63.50
55828;DHT22;41758;51.992;5.890;2023-10-09T10:01:26;24.10;63.70
55828;DHT22;41758;51.992;5.890;2023-10-09T10:04:03;24.20;63.20
55828;DHT22;41758;51.992;5.890;2023-10-09T10:06:32;24.20;62.70
55828;DHT22;41758;51.992;5.890;2023-10-09T10:08:59;24.20;62.30
55828;DHT22;41758;51.992;5.890;2023-10-09T10:11:42;24.20;62.30
55828;DHT22;41758;51.992;5.890;2023-10-09T10:14:10;24.30;62.10
55828;DHT22;41758;51.992;5.890;2023-10-09T10:17:04;24.30;62.20
55828;DHT22;41758;51.992;5.890;2023-10-09T10:20:08;24.30;62.20
55828;DHT22;41758;51.992;5.890;2023-10-09T10:22:43;24.30;61.70
55828;DHT22;41758;51.992;5.890;2023-10-09T10:30:45;24.40;61.90
55828;DHT22;41758;51.992;5.890;2023-10-09T10:33:12;24.50;62.00
55828;DHT22;41758;51.992;5.890;2023-10-09T10:35:48;24.60;61.60
55828;DHT22;41758;51.992;5.890;2023-10-09T10:38:30;24.60;61.70
55828;DHT22;41758;51.992;5.890;2023-10-09T10:41:16;24.70;60.80
55828;DHT22;41758;51.992;5.890;2023-10-09T10:43:46;24.70;60.90
55828;DHT22;41758;51.992;5.890;2023-10-09T10:46:18;24.70;60.30
55828;DHT22;41758;51.992;5.890;2023-10-09T10:48:47;24.70;60.10
55828;DHT22;41758;51.992;5.890;2023-10-09T10:51:15;24.70;60.50
55828;DHT22;41758;51.992;5.890;2023-10-09T10:53:53;24.70;60.80
55828;DHT22;41758;51.992;5.890;2023-10-09T10:56:23;24.80;60.50
55828;DHT22;41758;51.992;5.890;2023-10-09T10:59:00;24.90;60.50
55828;DHT22;41758;51.992;5.890;2023-10-09T11:01:33;25.00;60.40
55828;DHT22;41758;51.992;5.890;2023-10-09T11:04:20;25.00;60.60
55828;DHT22;41758;51.992;5.890;2023-10-09T11:06:58;25.10;60.80
55828;DHT22;41758;51.992;5.890;2023-10-09T11:15:15;25.40;60.00
55828;DHT22;41758;51.992;5.890;2023-10-09T11:18:06;25.50;59.50
55828;DHT22;41758;51.992;5.890;2023-10-09T11:20:34;25.50;59.30
55828;DHT22;41758;51.992;5.890;2023-10-09T11:23:02;25.50;59.10
55828;DHT22;41758;51.992;5.890;2023-10-09T11:25:42;25.50;58.80
55828;DHT22;41758;51.992;5.890;2023-10-09T11:28:21;25.50;58.00
55828;DHT22;41758;51.992;5.890;2023-10-09T11:31:11;25.60;58.20
55828;DHT22;41758;51.992;5.890;2023-10-09T11:33:48;25.60;58.30
55828;DHT22;41758;51.992;5.890;2023-10-09T11:36:18;25.60;56.80
55828;DHT22;41758;51.992;5.890;2023-10-09T11:38:58;25.60;57.20
55828;DHT22;41758;51.992;5.890;2023-10-09T11:41:42;25.60;57.80
55828;DHT22;41758;51.992;5.890;2023-10-09T11:44:08;25.70;57.20
55828;DHT22;41758;51.992;5.890;2023-10-09T11:47:02;25.70;57.60
55828;DHT22;41758;51.992;5.890;2023-10-09T11:49:58;25.80;56.90
55828;DHT22;41758;51.992;5.890;2023-10-09T11:52:30;25.80;56.60
55828;DHT22;41758;51.992;5.890;2023-10-09T11:55:11;25.80;55.70
55828;DHT22;41758;51.992;5.890;2023-10-09T11:57:41;25.80;56.40
55828;DHT22;41758;51.992;5.890;2023-10-09T12:00:07;25.80;56.40
55828;DHT22;41758;51.992;5.890;2023-10-09T12:02:50;25.80;56.30
55828;DHT22;41758;51.992;5.890;2023-10-09T12:05:16;25.90;56.50
55828;DHT22;41758;51.992;5.890;2023-10-09T12:07:45;25.90;56.70
55828;DHT22;41758;51.992;5.890;2023-10-09T12:10:11;26.10;55.80
55828;DHT22;41758;51.992;5.890;2023-10-09T12:12:39;26.10;55.50
55828;DHT22;41758;51.992;5.890;2023-10-09T12:15:06;26.10;55.70
55828;DHT22;41758;51.992;5.890;2023-10-09T12:17:32;26.20;56.00
55828;DHT22;41758;51.992;5.890;2023-10-09T12:19:58;26.30;55.60
55828;DHT22;41758;51.992;5.890;2023-10-09T12:22:24;26.30;55.90
55828;DHT22;41758;51.992;5.890;2023-10-09T12:24:52;26.40;56.00
55828;DHT22;41758;51.992;5.890;2023-10-09T12:27:19;26.40;56.00
55828;DHT22;41758;51.992;5.890;2023-10-09T12:29:46;26.40;55.80
55828;DHT22;41758;51.992;5.890;2023-10-09T12:32:12;26.40;55.80
55828;DHT22;41758;51.992;5.890;2023-10-09T12:34:38;26.50;55.90
55828;DHT22;41758;51.992;5.890;2023-10-09T12:37:05;26.60;55.90
55828;DHT22;41758;51.992;5.890;2023-10-09T12:39:31;26.60;55.70
55828;DHT22;41758;51.992;5.890;2023-10-09T12:42:05;26.60;55.50
55828;DHT22;41758;51.992;5.890;2023-10-09T12:44:34;26.60;55.10
55828;DHT22;41758;51.992;5.890;2023-10-09T12:47:06;26.60;55.20
55828;DHT22;41758;51.992;5.890;2023-10-09T12:49:32;26.50;54.80
55828;DHT22;41758;51.992;5.890;2023-10-09T12:51:58;26.40;54.80
55828;DHT22;41758;51.992;5.890;2023-10-09T12:54:28;26.40;54.50
55828;DHT22;41758;51.992;5.890;2023-10-09T12:56:54;26.30;54.60
55828;DHT22;41758;51.992;5.890;2023-10-09T12:59:20;26.20;54.80
55828;DHT22;41758;51.992;5.890;2023-10-09T13:01:48;26.20;54.80
55828;DHT22;41758;51.992;5.890;2023-10-09T13:04:18;26.20;54.90
55828;DHT22;41758;51.992;5.890;2023-10-09T13:06:48;26.20;55.00
55828;DHT22;41758;51.992;5.890;2023-10-09T13:09:17;26.10;55.10
55828;DHT22;41758;51.992;5.890;2023-10-09T13:11:58;26.10;55.10
55828;DHT22;41758;51.992;5.890;2023-10-09T13:14:27;26.10;54.70
55828;DHT22;41758;51.992;5.890;2023-10-09T13:16:52;26.00;54.80
55828;DHT22;41758;51.992;5.890;2023-10-09T13:19:19;26.00;54.90
55828;DHT22;41758;51.992;5.890;2023-10-09T13:21:44;25.90;55.00
55828;DHT22;41758;51.992;5.890;2023-10-09T13:24:10;25.90;54.70
55828;DHT22;41758;51.992;5.890;2023-10-09T13:26:45;25.80;55.00
55828;DHT22;41758;51.992;5.890;2023-10-09T13:29:12;25.80;55.10
55828;DHT22;41758;51.992;5.890;2023-10-09T13:31:39;25.80;55.30
55828;DHT22;41758;51.992;5.890;2023-10-09T13:34:12;25.80;55.30
55828;DHT22;41758;51.992;5.890;2023-10-09T13:36:41;25.80;55.10
55828;DHT22;41758;51.992;5.890;2023-10-09T13:39:15;25.70;55.30
55828;DHT22;41758;51.992;5.890;2023-10-09T13:41:51;25.70;55.40
55828;DHT22;41758;51.992;5.890;2023-10-09T13:44:27;25.70;55.50
55828;DHT22;41758;51.992;5.890;2023-10-09T13:47:03;25.70;55.70
55828;DHT22;41758;51.992;5.890;2023-10-09T13:49:31;25.70;55.70
55828;DHT22;41758;51.992;5.890;2023-10-09T13:52:01;25.70;55.80
55828;DHT22;41758;51.992;5.890;2023-10-09T13:54:29;25.70;55.80
55828;DHT22;41758;51.992;5.890;2023-10-09T13:57:00;25.70;55.80
55828;DHT22;41758;51.992;5.890;2023-10-09T13:59:29;25.70;55.80
55828;DHT22;41758;51.992;5.890;2023-10-09T14:01:56;25.60;56.00
55828;DHT22;41758;51.992;5.890;2023-10-09T14:04:22;25.60;56.10
55828;DHT22;41758;51.992;5.890;2023-10-09T14:06:49;25.60;56.20
55828;DHT22;41758;51.992;5.890;2023-10-09T14:09:26;25.60;56.20
55828;DHT22;41758;51.992;5.890;2023-10-09T14:12:15;25.60;56.30
55828;DHT22;41758;51.992;5.890;2023-10-09T14:14:45;25.60;56.30
55828;DHT22;41758;51.992;5.890;2023-10-09T14:17:18;25.60;56.40
55828;DHT22;41758;51.992;5.890;2023-10-09T14:19:57;25.60;56.40
55828;DHT22;41758;51.992;5.890;2023-10-09T14:22:41;25.70;56.50
55828;DHT22;41758;51.992;5.890;2023-10-09T14:25:07;25.60;56.50
55828;DHT22;41758;51.992;5.890;2023-10-09T14:27:40;25.60;56.40
55828;DHT22;41758;51.992;5.890;2023-10-09T14:30:07;25.60;56.60
55828;DHT22;41758;51.992;5.890;2023-10-09T14:32:38;25.60;56.60
55828;DHT22;41758;51.992;5.890;2023-10-09T14:35:11;25.60;56.50
55828;DHT22;41758;51.992;5.890;2023-10-09T14:37:40;25.60;56.70
55828;DHT22;41758;51.992;5.890;2023-10-09T14:40:06;25.50;56.80
55828;DHT22;41758;51.992;5.890;2023-10-09T14:42:41;25.50;56.90
55828;DHT22;41758;51.992;5.890;2023-10-09T14:45:11;25.50;56.90
55828;DHT22;41758;51.992;5.890;2023-10-09T14:47:44;25.50;56.90
55828;DHT22;41758;51.992;5.890;2023-10-09T14:50:12;25.50;56.90
55828;DHT22;41758;51.992;5.890;2023-10-09T14:52:39;25.50;57.00
55828;DHT22;41758;51.992;5.890;2023-10-09T14:55:06;25.50;57.00
55828;DHT22;41758;51.992;5.890;2023-10-09T14:57:32;25.40;57.10
55828;DHT22;41758;51.992;5.890;2023-10-09T15:00:01;25.50;57.20
55828;DHT22;41758;51.992;5.890;2023-10-09T15:02:32;25.50;57.20
55828;DHT22;41758;51.992;5.890;2023-10-09T15:04:58;25.50;57.30
55828;DHT22;41758;51.992;5.890;2023-10-09T15:07:23;25.60;57.20
55828;DHT22;41758;51.992;5.890;2023-10-09T15:09:49;25.50;57.20
55828;DHT22;41758;51.992;5.890;2023-10-09T15:12:16;25.50;57.20
55828;DHT22;41758;51.992;5.890;2023-10-09T15:14:42;25.40;57.40
55828;DHT22;41758;51.992;5.890;2023-10-09T15:17:08;25.40;57.50
55828;DHT22;41758;51.992;5.890;2023-10-09T15:19:34;25.40;57.60
55828;DHT22;41758;51.992;5.890;2023-10-09T15:22:00;25.40;57.40
55828;DHT22;41758;51.992;5.890;2023-10-09T15:24:27;25.40;57.50
55828;DHT22;41758;51.992;5.890;2023-10-09T15:26:55;25.40;57.60
55828;DHT22;41758;51.992;5.890;2023-10-09T15:29:25;25.40;57.60
55828;DHT22;41758;51.992;5.890;2023-10-09T15:31:56;25.50;57.70
55828;DHT22;41758;51.992;5.890;2023-10-09T15:34:30;25.50;57.70
55828;DHT22;41758;51.992;5.890;2023-10-09T15:36:57;25.50;57.60
55828;DHT22;41758;51.992;5.890;2023-10-09T15:39:22;25.50;57.50
55828;DHT22;41758;51.992;5.890;2023-10-09T15:41:49;25.40;57.50
55828;DHT22;41758;51.992;5.890;2023-10-09T15:44:17;25.40;57.50
55828;DHT22;41758;51.992;5.890;2023-10-09T15:46:43;25.40;57.60
55828;DHT22;41758;51.992;5.890;2023-10-09T15:49:14;25.40;57.60
55828;DHT22;41758;51.992;5.890;2023-10-09T15:51:41;25.30;57.60
55828;DHT22;41758;51.992;5.890;2023-10-09T15:54:09;25.30;57.60
55828;DHT22;41758;51.992;5.890;2023-10-09T15:56:37;25.30;57.50
55828;DHT22;41758;51.992;5.890;2023-10-09T15:59:07;25.30;57.60
55828;DHT22;41758;51.992;5.890;2023-10-09T16:01:33;25.20;57.80
55828;DHT22;41758;51.992;5.890;2023-10-09T16:04:01;25.10;58.40
55828;DHT22;41758;51.992;5.890;2023-10-09T16:06:27;25.20;58.50
55828;DHT22;41758;51.992;5.890;2023-10-09T16:08:56;25.10;58.20
55828;DHT22;41758;51.992;5.890;2023-10-09T16:11:23;25.10;58.30
55828;DHT22;41758;51.992;5.890;2023-10-09T16:13:52;25.10;57.70
55828;DHT22;41758;51.992;5.890;2023-10-09T16:16:30;25.00;57.70
55828;DHT22;41758;51.992;5.890;2023-10-09T16:18:58;24.90;57.90
55828;DHT22;41758;51.992;5.890;2023-10-09T16:21:25;24.90;58.00
55828;DHT22;41758;51.992;5.890;2023-10-09T16:23:51;24.80;57.90
55828;DHT22;41758;51.992;5.890;2023-10-09T16:26:17;24.80;58.00
55828;DHT22;41758;51.992;5.890;2023-10-09T16:28:43;24.80;58.10
55828;DHT22;41758;51.992;5.890;2023-10-09T16:31:10;24.80;58.10
55828;DHT22;41758;51.992;5.890;2023-10-09T16:33:47;24.80;58.10